Time;durP1;ratioP1;P1;durP2;ratioP2;P2;SDS_P1;SDS_P2;PMS_P1;PMS_P2;Temp;Humidity;BMP_temperature;BMP_pressure;BME280_temperature;BME280_humidity;BME280_pressure;Samples;Min_cycle;Max_cycle;Signal;HPM_P1;HPM_P2
2022/05/15 00:01:02;;;;;;;14.43;10.67;;;;;;;15.99;100.00;62512.47;5092343;28;20248;-72
2022/05/15 00:03:30;;;;;;;14.93;11.27;;;;;;;15.79;100.00;62490.38;5091810;28;20693;-74
2022/05/15 00:05:59;;;;;;;13.53;11.93;;;;;;;15.72;100.00;62485.94;5091897;28;20196;-74
2022/05/15 00:08:28;;;;;;;22.50;13.53;;;;;;;15.84;100.00;62498.88;5091637;28;20260;-74
2022/05/15 00:10:56;;;;;;;16.40;12.87;;;;;;;15.87;100.00;62496.97;5091946;28;20265;-73
2022/05/15 00:13:24;;;;;;;20.73;15.43;;;;;;;15.79;100.00;62493.50;5091769;28;20192;-73
2022/05/15 00:15:53;;;;;;;26.37;14.57;;;;;;;15.81;100.00;62495.66;5091696;28;20611;-74
2022/05/15 00:18:22;;;;;;;18.57;14.50;;;;;;;15.14;100.00;62418.38;5091730;28;20597;-73
2022/05/15 00:20:51;;;;;;;21.67;15.13;;;;;;;15.78;100.00;62487.28;5091481;28;20192;-74
2022/05/15 00:23:20;;;;;;;17.90;13.73;;;;;;;15.82;100.00;62491.56;5073214;28;20577;-73
2022/05/15 00:25:47;;;;;;;22.77;13.70;;;;;;;15.46;100.00;62454.84;5091714;28;20279;-75
2022/05/15 00:28:14;;;;;;;18.50;13.83;;;;;;;15.83;100.00;62487.53;5091678;28;20195;-73
2022/05/15 00:30:42;;;;;;;17.37;13.67;;;;;;;15.71;100.00;62479.75;5091409;28;20220;-74
2022/05/15 00:33:10;;;;;;;18.03;13.53;;;;;;;15.70;100.00;62480.69;5091479;28;20196;-74
2022/05/15 00:35:37;;;;;;;16.43;13.70;;;;;;;15.29;100.00;62431.94;5091567;28;20257;-73
2022/05/15 00:38:08;;;;;;;25.37;13.03;;;;;;;15.64;100.00;62474.78;5091625;28;20243;-73
2022/05/15 00:40:38;;;;;;;15.77;12.27;;;;;;;15.58;100.00;62465.75;5091687;28;20208;-73
2022/05/15 00:43:05;;;;;;;18.83;12.20;;;;;;;15.54;100.00;62460.88;5091419;28;20290;-74
2022/05/15 00:45:32;;;;;;;12.80;10.80;;;;;;;15.41;100.00;62450.00;5091261;28;20223;-75
2022/05/15 00:47:59;;;;;;;12.50;10.63;;;;;;;15.40;100.00;62440.66;5091422;28;20645;-74
2022/05/15 00:50:31;;;;;;;12.87;10.83;;;;;;;15.24;100.00;62429.13;5091521;28;20199;-74
2022/05/15 00:53:05;;;;;;;14.20;10.53;;;;;;;15.22;100.00;62424.94;5091553;28;20196;-75
2022/05/15 00:55:39;;;;;;;13.77;10.53;;;;;;;15.18;100.00;62422.66;5091320;28;20245;-74
2022/05/15 00:58:11;;;;;;;17.83;10.90;;;;;;;14.99;100.00;62399.66;5091312;28;20199;-74
2022/05/15 01:00:41;;;;;;;15.30;10.60;;;;;;;15.13;100.00;62420.38;5091351;28;20203;-74
2022/05/15 01:03:09;;;;;;;13.63;9.70;;;;;;;14.62;100.00;62364.97;5091519;28;20204;-74
2022/05/15 01:05:41;;;;;;;12.17;9.13;;;;;;;15.10;100.00;62414.06;5091248;28;20238;-74
2022/05/15 01:08:09;;;;;;;13.47;9.40;;;;;;;15.07;100.00;62410.84;5091451;28;20196;-73
2022/05/15 01:10:40;;;;;;;9.87;8.60;;;;;;;15.01;100.00;62404.91;5091599;28;20196;-73
2022/05/15 01:13:10;;;;;;;9.23;7.90;;;;;;;14.98;100.00;62401.69;5091365;28;20269;-73
2022/05/15 01:15:38;;;;;;;9.90;8.07;;;;;;;14.76;100.00;62382.59;5091187;28;20230;-74
2022/05/15 01:18:08;;;;;;;12.47;8.73;;;;;;;15.18;100.00;62422.66;5091317;28;20284;-74
2022/05/15 01:20:35;;;;;;;10.50;8.33;;;;;;;15.10;100.00;62414.06;5091280;28;20207;-74
2022/05/15 01:23:03;;;;;;;10.43;8.73;;;;;;;14.98;100.00;62406.28;5091140;28;20302;-75
2022/05/15 01:25:34;;;;;;;10.87;8.70;;;;;;;15.05;100.00;62411.25;5090836;28;20235;-75
2022/05/15 01:28:05;;;;;;;10.33;8.17;;;;;;;15.01;100.00;62409.50;5091281;28;20268;-74
2022/05/15 01:30:33;;;;;;;11.80;8.87;;;;;;;15.05;100.00;62408.69;5090851;28;20315;-74
2022/05/15 01:33:00;;;;;;;13.30;8.47;;;;;;;14.97;100.00;62400.09;5091033;28;20257;-74
2022/05/15 01:35:27;;;;;;;8.87;7.97;;;;;;;14.91;100.00;62394.16;5091239;28;20200;-75
2022/05/15 01:37:54;;;;;;;10.50;8.93;;;;;;;14.79;100.00;62380.72;5092503;28;20227;-73
2022/05/15 01:40:23;;;;;;;11.00;8.60;;;;;;;14.76;100.00;62378.03;5094766;28;20261;-74
2022/05/15 01:42:50;;;;;;;10.57;8.73;;;;;;;14.70;100.00;62371.56;5094169;28;20253;-74
2022/05/15 01:45:17;;;;;;;12.30;8.10;;;;;;;14.69;100.00;62372.53;5094531;28;20231;-74
2022/05/15 01:47:44;;;;;;;12.23;8.63;;;;;;;14.63;100.00;62360.94;5094522;28;20191;-74
2022/05/15 01:50:14;;;;;;;9.30;8.37;;;;;;;14.55;100.00;62360.56;5094281;28;20720;-74
2022/05/15 01:52:43;;;;;;;14.83;8.60;;;;;;;14.51;100.00;62353.69;5094382;28;20231;-75
2022/05/15 01:55:10;;;;;;;11.73;8.77;;;;;;;14.66;100.00;62367.25;5094338;28;20196;-74
2022/05/15 01:57:40;;;;;;;11.17;8.63;;;;;;;14.65;100.00;62365.66;5094369;28;20649;-75
2022/05/15 02:00:09;;;;;;;13.53;8.77;;;;;;;14.43;100.00;62344.56;5094343;28;20206;-74
2022/05/15 02:02:38;;;;;;;11.07;9.30;;;;;;;13.79;100.00;62276.81;5094152;28;20195;-74
2022/05/15 02:05:07;;;;;;;12.17;9.10;;;;;;;13.84;100.00;62279.06;5094201;28;20242;-74
2022/05/15 02:07:33;;;;;;;10.83;8.90;;;;;;;14.39;100.00;62340.78;5093612;28;20212;-74
2022/05/15 02:10:01;;;;;;;14.80;9.17;;;;;;;13.53;100.00;62246.31;5094096;28;20199;-75
2022/05/15 02:12:27;;;;;;;10.73;9.17;;;;;;;14.37;100.00;62336.59;5093862;28;20283;-74
2022/05/15 02:14:57;;;;;;;14.50;9.47;;;;;;;14.39;100.00;62341.31;5093855;28;20199;-74
2022/05/15 02:17:24;;;;;;;9.97;8.77;;;;;;;14.27;100.00;62325.84;5093904;28;20199;-74
2022/05/15 02:19:51;;;;;;;11.57;8.90;;;;;;;14.31;100.00;62332.72;5093850;28;20192;-75
2022/05/15 02:22:18;;;;;;;13.10;9.13;;;;;;;14.36;100.00;62340.66;5093931;28;20249;-73
2022/05/15 02:24:45;;;;;;;13.73;8.83;;;;;;;14.33;100.00;62332.31;5093929;28;20675;-75
2022/05/15 02:27:12;;;;;;;13.33;9.70;;;;;;;14.19;100.00;62317.22;5093713;28;20192;-75
2022/05/15 02:29:39;;;;;;;12.80;9.37;;;;;;;14.19;100.00;62319.78;5093528;28;20219;-74
2022/05/15 02:32:08;;;;;;;17.93;10.27;;;;;;;14.01;100.00;62297.88;5093418;28;20229;-73
2022/05/15 02:34:36;;;;;;;13.53;10.50;;;;;;;14.02;100.00;62298.97;5093726;28;20199;-74
2022/05/15 02:37:04;;;;;;;12.00;9.30;;;;;;;14.00;100.00;62299.38;5093608;28;20192;-73
2022/05/15 02:39:31;;;;;;;13.80;10.27;;;;;;;14.04;100.00;62301.13;5093384;28;20231;-73
2022/05/15 02:42:01;;;;;;;15.10;9.60;;;;;;;14.02;100.00;62301.53;5093580;28;20253;-73
2022/05/15 02:44:28;;;;;;;13.20;9.50;;;;;;;14.03;100.00;62302.59;5093138;28;20224;-73
2022/05/15 02:46:55;;;;;;;12.00;10.23;;;;;;;13.87;100.00;62282.84;5093743;28;20257;-74
2022/05/15 02:52:08;;;;;;;16.70;10.47;;;;;;;14.07;100.00;62304.34;5093447;28;20202;-73
2022/05/15 02:54:36;;;;;;;12.30;9.37;;;;;;;13.90;100.00;62283.50;5093139;28;20666;-73
2022/05/15 02:57:04;;;;;;;12.23;9.63;;;;;;;13.35;100.00;62226.97;5093650;28;20191;-73
2022/05/15 02:59:32;;;;;;;17.43;10.43;;;;;;;13.90;100.00;62288.09;5093622;28;20206;-74
2022/05/15 03:02:00;;;;;;;10.67;9.57;;;;;;;13.91;100.00;62287.13;5095092;28;20203;-73
2022/05/15 03:04:31;;;;;;;17.03;10.43;;;;;;;13.83;100.00;62281.09;5093914;28;20239;-74
2022/05/15 03:06:58;;;;;;;13.90;10.10;;;;;;;13.85;100.00;62280.69;5093825;28;20195;-73
2022/05/15 03:09:26;;;;;;;12.33;10.20;;;;;;;13.81;100.00;62276.38;5092943;28;20199;-73
2022/05/15 03:11:52;;;;;;;13.53;10.60;;;;;;;13.73;100.00;62267.78;5092927;28;20200;-74
2022/05/15 03:14:20;;;;;;;15.63;10.13;;;;;;;13.91;100.00;62289.69;5092494;28;20199;-73
2022/05/15 03:16:46;;;;;;;22.13;11.70;;;;;;;13.96;100.00;62291.97;5092958;28;20204;-73
2022/05/15 03:19:13;;;;;;;13.67;10.37;;;;;;;13.98;100.00;62294.13;5092854;28;20663;-73
2022/05/15 03:21:41;;;;;;;15.03;10.30;;;;;;;14.05;100.00;62302.19;5092562;28;20627;-73
2022/05/15 03:24:11;;;;;;;15.83;10.40;;;;;;;14.01;100.00;62297.88;5092509;28;20248;-75
2022/05/15 03:26:40;;;;;;;13.03;10.77;;;;;;;14.06;100.00;62302.72;5092549;28;20203;-73
2022/05/15 03:29:08;;;;;;;14.33;10.60;;;;;;;13.85;100.00;62282.69;5092596;28;20192;-73
2022/05/15 03:31:36;;;;;;;15.03;10.67;;;;;;;13.79;100.00;62276.81;5092379;28;20667;-74
2022/05/15 03:34:03;;;;;;;13.63;10.57;;;;;;;13.92;100.00;62288.22;5092731;28;20196;-74
2022/05/15 03:36:30;;;;;;;19.63;11.23;;;;;;;13.89;100.00;62282.44;5092398;28;20571;-72
2022/05/15 03:38:59;;;;;;;13.90;10.47;;;;;;;14.03;100.00;62302.59;5092540;28;20625;-73
2022/05/15 03:41:27;;;;;;;21.17;10.83;;;;;;;14.09;100.00;62311.59;5092119;28;20740;-73
2022/05/15 03:43:54;;;;;;;14.60;11.30;;;;;;;13.99;100.00;62295.72;5092081;28;20195;-73
2022/05/15 03:46:21;;;;;;;16.63;10.53;;;;;;;13.99;100.00;62298.28;5092158;28;20284;-73
2022/05/15 03:48:48;;;;;;;13.50;10.83;;;;;;;14.04;100.00;62303.69;5092365;28;20687;-74
2022/05/15 03:51:16;;;;;;;21.07;10.63;;;;;;;14.22;100.00;62319.94;5091931;28;20631;-74
2022/05/15 03:53:43;;;;;;;17.97;11.20;;;;;;;14.33;100.00;62334.88;5092215;28;20222;-73
2022/05/15 03:56:11;;;;;;;15.63;10.50;;;;;;;14.44;100.00;62343.59;5091838;28;20678;-74
2022/05/15 03:58:39;;;;;;;19.90;11.20;;;;;;;14.48;100.00;62347.38;5091581;28;20678;-74
2022/05/15 04:01:07;;;;;;;12.60;10.17;;;;;;;14.50;100.00;62349.50;5091504;28;20668;-74
2022/05/15 04:03:34;;;;;;;12.80;10.53;;;;;;;14.53;100.00;62357.88;5091863;28;20199;-74
2022/05/15 04:06:01;;;;;;;12.33;10.13;;;;;;;14.04;100.00;62296.00;5092005;28;20311;-73
2022/05/15 04:08:30;;;;;;;16.70;10.27;;;;;;;14.60;100.00;62360.81;5091886;28;20204;-73
2022/05/15 04:10:57;;;;;;;13.73;10.10;;;;;;;14.62;100.00;62364.97;5091900;28;20192;-75
2022/05/15 04:13:26;;;;;;;12.03;9.73;;;;;;;14.74;100.00;62375.88;5091705;28;20264;-73
2022/05/15 04:15:53;;;;;;;13.60;10.23;;;;;;;14.83;100.00;62382.97;5091785;28;20210;-73
2022/05/15 04:18:21;;;;;;;12.13;10.50;;;;;;;14.83;100.00;62382.44;5091561;28;20264;-74
2022/05/15 04:20:48;;;;;;;15.27;9.93;;;;;;;14.90;100.00;62395.09;5091891;28;20200;-75
2022/05/15 04:23:14;;;;;;;15.20;9.57;;;;;;;15.05;100.00;62408.69;5091764;28;20199;-75
2022/05/15 04:25:41;;;;;;;11.53;10.27;;;;;;;15.32;100.00;62440.31;5091673;28;20231;-75
2022/05/15 04:28:09;;;;;;;13.37;9.50;;;;;;;15.45;100.00;62459.47;5091639;28;20199;-73
2022/05/15 04:30:38;;;;;;;16.33;10.00;;;;;;;15.54;100.00;62461.44;5091452;28;20281;-75
2022/05/15 04:33:04;;;;;;;13.87;9.93;;;;;;;15.72;100.00;62482.84;5091826;28;20200;-74
2022/05/15 04:35:31;;;;;;;13.83;9.27;;;;;;;15.98;100.00;62508.81;5091561;28;20248;-74
2022/05/15 04:37:58;;;;;;;10.67;8.83;;;;;;;16.26;100.00;62537.91;5091433;28;20235;-74
2022/05/15 04:40:25;;;;;;;13.47;9.37;;;;;;;15.82;100.00;62491.56;5091427;28;20257;-74
2022/05/15 04:42:51;;;;;;;12.77;10.40;;;;;;;16.27;100.00;62539.50;5091406;28;20199;-73
2022/05/15 04:45:18;;;;;;;14.60;9.97;;;;;;;15.56;100.00;62461.03;5091145;28;20227;-75
2022/05/15 04:47:48;;;;;;;19.53;12.17;;;;;;;16.62;100.00;62576.72;5091703;28;20204;-74
2022/05/15 04:50:16;;;;;;;13.70;11.20;;;;;;;16.32;100.00;62541.78;5091496;28;20674;-74
2022/05/15 04:52:42;;;;;;;15.60;10.63;;;;;;;16.71;100.00;62586.41;5091629;28;20202;-74
2022/05/15 04:55:10;;;;;;;15.70;10.67;;;;;;;16.93;100.00;62610.13;5091400;28;20195;-73
2022/05/15 04:57:37;;;;;;;15.27;10.70;;;;;;;16.68;100.00;62583.19;5091865;28;20200;-73
2022/05/15 05:00:06;;;;;;;12.27;9.57;;;;;;;17.08;100.00;62628.88;5091256;28;20613;-73
2022/05/15 05:02:34;;;;;;;17.13;9.67;;;;;;;17.08;100.00;62630.91;5091318;28;20239;-74
2022/05/15 05:05:02;;;;;;;17.33;9.90;;;;;;;17.21;100.00;62640.28;5091328;28;20235;-73
2022/05/15 05:07:30;;;;;;;14.97;9.07;;;;;;;17.12;100.00;62624.91;5091662;28;20199;-73
2022/05/15 05:09:58;;;;;;;14.33;9.87;;;;;;;17.44;100.00;62662.00;5091717;28;20282;-72
2022/05/15 05:12:25;;;;;;;14.13;10.03;;;;;;;17.48;100.00;62671.44;5091889;28;20731;-73
2022/05/15 05:14:52;;;;;;;12.03;10.23;;;;;;;17.47;100.00;62670.38;5095495;28;20728;-73
2022/05/15 05:17:19;;;;;;;12.30;9.13;;;;;;;17.48;100.00;62669.41;5094923;28;20622;-74
2022/05/15 05:19:47;;;;;;;12.97;8.97;;;;;;;17.88;100.00;62712.03;5095254;28;20265;-73
2022/05/15 05:22:16;;;;;;;12.53;9.37;;;;;;;17.97;100.00;62721.22;5094951;28;20258;-74
2022/05/15 05:24:42;;;;;;;13.43;8.63;;;;;;;17.76;100.00;62698.56;5094914;28;20202;-74
2022/05/15 05:27:13;;;;;;;9.57;8.57;;;;;;;17.59;100.00;62681.28;5094717;28;20288;-75
2022/05/15 05:29:40;;;;;;;13.90;8.50;;;;;;;18.14;100.00;62740.09;5094805;28;20223;-75
2022/05/15 05:32:09;;;;;;;14.57;8.37;;;;;;;18.44;100.00;62772.50;5094596;28;20662;-73
2022/05/15 05:34:36;;;;;;;10.17;7.83;;;;;;;18.67;100.00;62794.22;5093822;28;20204;-74
2022/05/15 05:37:04;;;;;;;14.33;8.13;;;;;;;18.97;100.00;62826.59;5094512;28;20196;-74
2022/05/15 05:39:32;;;;;;;11.20;8.17;;;;;;;18.95;100.00;62829.63;5094158;28;20296;-74
2022/05/15 05:41:59;;;;;;;13.70;7.63;;;;;;;19.19;100.00;62850.38;5094743;28;20253;-74
2022/05/15 05:44:27;;;;;;;16.60;7.97;;;;;;;19.43;100.00;62880.41;5094655;28;20245;-74
2022/05/15 05:46:54;;;;;;;13.23;8.37;;;;;;;19.46;100.00;62881.59;5094438;28;20227;-74
2022/05/15 05:49:21;;;;;;;10.87;7.57;;;;;;;19.72;100.00;62911.75;5094496;28;20206;-74
2022/05/15 05:51:51;;;;;;;15.13;8.33;;;;;;;19.31;100.00;62865.38;5094469;28;20195;-74
2022/05/15 05:54:17;;;;;;;12.53;7.93;;;;;;;20.16;100.00;62957.25;5093922;28;20207;-74
2022/05/15 05:56:45;;;;;;;11.73;8.50;;;;;;;19.48;100.00;62883.22;5094374;28;20249;-73
2022/05/15 05:59:13;;;;;;;9.93;8.10;;;;;;;20.03;100.00;62943.19;5094134;28;20204;-74
2022/05/15 06:01:41;;;;;;;10.23;7.90;;;;;;;20.29;100.00;62972.84;5094086;28;20199;-74
2022/05/15 06:06:57;;;;;;;14.90;7.07;;;;;;;20.83;100.00;63029.19;5094682;28;20280;-76
2022/05/15 06:09:24;;;;;;;13.33;6.97;;;;;;;21.02;100.00;63049.78;5094181;28;20196;-73
2022/05/15 06:11:54;;;;;;;15.60;7.57;;;;;;;20.63;100.00;63007.56;5093914;28;20252;-73
2022/05/15 06:14:21;;;;;;;12.10;7.13;;;;;;;20.80;100.00;63025.41;5093867;28;20191;-74
2022/05/15 06:16:50;;;;;;;11.00;7.40;;;;;;;20.96;100.00;63043.28;5093999;28;20196;-74
2022/05/15 06:19:17;;;;;;;8.93;6.70;;;;;;;21.12;100.00;63056.91;5093590;28;20651;-73
2022/05/15 06:21:45;;;;;;;17.00;7.10;;;;;;;20.62;100.00;63006.47;5093707;28;20199;-76
2022/05/15 06:24:12;;;;;;;12.27;7.03;;;;;;;21.89;100.00;63139.75;5093380;28;20207;-75
2022/05/15 06:26:40;;;;;;;12.27;6.70;;;;;;;22.13;100.00;63168.88;5093739;28;20705;-74
2022/05/15 06:29:08;;;;;;;13.27;7.20;;;;;;;22.20;100.00;63176.44;5093721;28;20199;-74
2022/05/15 06:31:35;;;;;;;10.07;6.13;;;;;;;21.94;100.00;63148.28;5093361;28;20202;-75
2022/05/15 06:34:02;;;;;;;11.00;6.67;;;;;;;21.89;100.00;63140.28;5093650;28;20191;-74
2022/05/15 06:36:29;;;;;;;12.43;6.87;;;;;;;21.89;100.00;63142.91;5093261;28;20196;-74
2022/05/15 06:38:56;;;;;;;12.40;6.83;;;;;;;22.01;100.00;63155.88;5093904;28;20266;-73
2022/05/15 06:41:24;;;;;;;13.00;5.60;;;;;;;22.39;100.00;63194.44;5094611;28;20670;-75
2022/05/15 06:43:51;;;;;;;9.13;5.33;;;;;;;22.43;100.00;63201.38;5093835;28;20279;-75
2022/05/15 06:46:19;;;;;;;8.53;4.53;;;;;;;22.29;100.00;63183.63;5093241;28;20227;-73
2022/05/15 06:48:46;;;;;;;8.50;4.90;;;;;;;22.13;100.00;63168.88;5093602;28;20211;-74
2022/05/15 06:51:16;;;;;;;8.47;4.40;;;;;;;22.39;100.00;63202.25;5074746;28;20558;-75
2022/05/15 06:53:44;;;;;;;8.87;4.60;;;;;;;22.39;100.00;63197.03;5093034;28;20199;-74
2022/05/15 06:58:57;;;;;;;9.07;4.77;;;;;;;22.27;100.00;63184.03;5093183;28;20207;-74
2022/05/15 07:01:25;;;;;;;7.40;4.60;;;;;;;22.04;100.00;63161.72;5093129;28;20278;-76
2022/05/15 07:03:52;;;;;;;12.37;4.70;;;;;;;22.48;100.00;63211.97;5093089;28;20640;-73
2022/05/15 07:06:34;;;;;;;17.27;4.73;;;;;;;22.46;100.00;63204.63;5092795;28;20706;-74
2022/05/15 07:09:02;;;;;;;8.43;4.83;;;;;;;22.82;100.00;63242.56;5092669;28;20631;-73
2022/05/15 07:11:29;;;;;;;7.30;4.83;;;;;;;23.20;100.00;63286.38;5092447;28;20223;-74
2022/05/15 07:13:56;;;;;;;6.60;4.47;;;;;;;23.35;100.00;63294.84;5092766;28;20191;-74
2022/05/15 07:16:24;;;;;;;8.10;4.77;;;;;;;23.67;100.00;63334.75;5092536;28;20204;-75
2022/05/15 07:18:52;;;;;;;8.97;3.87;;;;;;;23.64;100.00;63336.69;5092512;28;20659;-73
2022/05/15 07:21:21;;;;;;;8.43;4.30;;;;;;;23.70;100.00;63338.00;5092450;28;20197;-73
2022/05/15 07:23:48;;;;;;;9.43;4.97;;;;;;;23.83;100.00;63351.53;5092430;28;20196;-75
2022/05/15 07:26:15;;;;;;;7.70;4.37;;;;;;;23.96;100.00;63365.66;5092217;28;20233;-73
2022/05/15 07:28:41;;;;;;;9.90;4.07;;;;;;;23.98;100.00;63373.59;5092167;28;20257;-74
2022/05/15 07:31:08;;;;;;;7.20;4.27;;;;;;;24.13;100.00;63389.88;5092055;28;20285;-74
2022/05/15 07:33:37;;;;;;;8.40;3.87;;;;;;;24.03;100.00;63375.88;5092309;28;20201;-73
2022/05/15 07:36:04;;;;;;;10.47;4.17;;;;;;;23.91;100.00;63360.78;5091540;28;20269;-74
2022/05/15 07:38:31;;;;;;;7.37;4.27;;;;;;;23.91;100.00;63360.78;5092164;28;20277;-72
2022/05/15 07:40:58;;;;;;;9.83;4.73;;;;;;;23.93;100.00;63368.16;5092551;28;20260;-76
2022/05/15 07:43:25;;;;;;;7.13;4.20;;;;;;;23.47;100.00;63310.44;5092100;28;20193;-74
2022/05/15 07:45:52;;;;;;;8.00;3.83;;;;;;;23.55;100.00;63324.31;5092231;28;20284;-73
2022/05/15 07:48:20;;;;;;;8.07;4.27;;;;;;;23.32;100.00;63296.78;5092103;28;20199;-74
2022/05/15 07:50:50;;;;;;;8.63;3.47;;;;;;;23.56;100.00;63325.41;5091919;28;20196;-75
2022/05/15 07:53:17;;;;;;;9.60;3.00;;;;;;;23.53;100.00;63316.97;5091859;28;20202;-73
2022/05/15 07:55:43;;;;;;;6.50;3.40;;;;;;;23.37;100.00;63300.16;5091589;28;20724;-74
2022/05/15 07:58:11;;;;;;;12.43;3.17;;;;;;;24.00;100.00;63370.53;5091657;28;20208;-74
2022/05/15 08:00:38;;;;;;;3.77;2.70;;;;;;;24.03;100.00;63379.03;5091509;28;20193;-74
2022/05/15 08:03:08;;;;;;;9.83;3.20;;;;;;;23.89;100.00;63358.59;5091635;28;20660;-76
2022/05/15 08:08:22;;;;;;;6.80;2.60;;;;;;;22.98;100.00;63259.91;5091462;28;20269;-73
2022/05/15 08:10:50;;;;;;;5.83;3.10;;;;;;;22.92;100.00;63253.94;5091368;28;20195;-72
2022/05/15 08:13:19;;;;;;;4.30;2.70;;;;;;;23.31;100.00;63296.25;5091580;28;20286;-74
2022/05/15 08:15:47;;;;;;;10.67;3.03;;;;;;;23.43;100.00;63306.66;5091304;28;20667;-73
2022/05/15 08:23:47;;;;;;;7.40;3.20;;;;;;;23.55;100.00;63319.13;5091601;28;20206;-74
2022/05/15 08:26:14;;;;;;;10.93;4.10;;;;;;;22.65;100.00;63224.69;5091136;28;20220;-74
2022/05/15 08:28:41;;;;;;;5.37;3.10;;;;;;;23.48;100.00;63309.47;5091526;28;20287;-73
2022/05/15 08:31:09;;;;;;;13.67;3.67;;;;;;;23.79;100.00;63342.56;5091231;28;20215;-74
2022/05/15 08:33:36;;;;;;;13.60;3.37;;;;;;;23.43;100.00;63314.47;5091382;28;20207;-74
2022/05/15 08:36:03;;;;;;;12.47;7.13;;;;;;;24.14;100.00;63385.75;5091164;28;20195;-72
2022/05/15 08:38:31;;;;;;;5.43;3.17;;;;;;;24.25;100.00;63397.13;5091341;28;20239;-74
2022/05/15 08:41:03;;;;;;;6.13;3.10;;;;;;;24.16;100.00;63385.31;5091060;28;20270;-74
2022/05/15 08:43:43;;;;;;;6.23;2.90;;;;;;;23.85;100.00;63354.25;5090965;28;20201;-74
2022/05/15 08:46:24;;;;;;;4.27;2.50;;;;;;;23.78;100.00;63348.75;5091331;28;20360;-74
2022/05/15 08:48:52;;;;;;;8.33;2.93;;;;;;;23.85;100.00;63348.50;5094902;28;20277;-73
2022/05/15 08:51:19;;;;;;;4.07;2.23;;;;;;;23.85;100.00;63354.25;5095157;28;20202;-75
2022/05/15 08:53:51;;;;;;;3.27;2.03;;;;;;;23.68;100.00;63341.03;5095113;28;20626;-74
2022/05/15 08:56:21;;;;;;;6.73;2.80;;;;;;;23.84;100.00;63355.78;5095224;28;20199;-74
2022/05/15 08:58:51;;;;;;;9.10;3.80;;;;;;;23.85;100.00;63354.25;5095066;28;20244;-73
2022/05/15 09:01:23;;;;;;;4.80;2.80;;;;;;;24.17;100.00;63391.59;5095088;28;20221;-75
2022/05/15 09:03:50;;;;;;;10.17;3.13;;;;;;;24.50;100.00;63423.72;5095039;28;20636;-73
2022/05/15 09:06:30;;;;;;;5.03;2.47;;;;;;;24.60;100.00;63434.59;5095256;28;20230;-74
2022/05/15 09:09:07;;;;;;;4.97;2.80;;;;;;;24.75;100.00;63450.91;5095137;28;20197;-74
2022/05/15 09:11:48;;;;;;;4.80;2.70;;;;;;;25.71;100.00;63555.19;5094843;28;20198;-74
2022/05/15 09:14:29;;;;;;;5.97;2.27;;;;;;;25.72;100.00;63556.25;5095033;28;20570;-73
2022/05/15 09:16:58;;;;;;;7.03;2.87;;;;;;;25.77;100.00;63558.53;5095464;28;20213;-72
2022/05/15 09:19:25;;;;;;;5.77;2.60;;;;;;;25.65;100.00;63550.72;5094801;28;20252;-74
2022/05/15 09:21:56;;;;;;;6.60;2.33;;;;;;;25.23;100.00;63500.41;5094928;28;20290;-73
2022/05/15 09:24:34;;;;;;;4.27;2.53;;;;;;;25.37;100.00;63517.69;5094871;28;20277;-73
2022/05/15 09:27:15;;;;;;;7.53;2.40;;;;;;;25.71;100.00;63549.97;5095192;28;20237;-73
2022/05/15 09:29:42;;;;;;;3.53;2.30;;;;;;;26.28;100.00;63616.59;5094760;28;20218;-73
2022/05/15 09:32:26;;;;;;;3.20;2.07;;;;;;;26.88;98.10;63676.09;5094732;28;20195;-75
2022/05/15 09:34:54;;;;;;;5.33;2.80;;;;;;;27.19;93.69;63714.47;5094904;28;20249;-75
2022/05/15 09:40:14;;;;;;;6.40;2.40;;;;;;;27.02;76.97;63698.63;5094650;28;20356;-73
2022/05/15 09:45:54;;;;;;;4.93;2.10;;;;;;;26.95;73.59;63688.38;5094302;28;20268;-74
2022/05/15 09:48:24;;;;;;;5.63;2.20;;;;;;;26.82;72.37;63674.78;5094446;28;20238;-73
2022/05/15 09:51:09;;;;;;;3.67;2.30;;;;;;;27.00;70.33;63693.81;5094409;28;20206;-74
2022/05/15 09:53:42;;;;;;;5.13;2.40;;;;;;;27.53;68.94;63751.50;5094101;28;20615;-73
2022/05/15 09:56:13;;;;;;;6.97;2.40;;;;;;;27.82;68.16;63779.91;5094322;28;20195;-73
2022/05/15 09:58:44;;;;;;;4.63;2.50;;;;;;;28.11;63.07;63809.41;5093544;28;20231;-74
2022/05/15 10:01:24;;;;;;;3.60;2.13;;;;;;;28.17;63.30;63823.78;5094307;28;20242;-74
2022/05/15 10:03:54;;;;;;;7.13;1.97;;;;;;;28.15;61.65;63819.00;5094151;28;20551;-73
2022/05/15 10:06:23;;;;;;;5.20;2.00;;;;;;;28.14;64.04;63817.38;5093843;28;20202;-75
2022/05/15 10:09:10;;;;;;;7.03;2.17;;;;;;;27.74;64.93;63779.03;5094107;28;20260;-74
2022/05/15 10:11:41;;;;;;;7.10;2.63;;;;;;;27.28;67.47;63730.06;5093777;28;20246;-73
2022/05/15 10:14:24;;;;;;;3.93;2.20;;;;;;;27.55;67.08;63756.84;5076396;28;20273;-74
2022/05/15 10:17:02;;;;;;;8.20;2.40;;;;;;;27.72;65.17;63769.00;5093922;28;20199;-74
2022/05/15 10:19:35;;;;;;;7.80;2.33;;;;;;;27.28;58.39;63719.59;5093913;28;20254;-75
2022/05/15 10:22:15;;;;;;;4.63;2.00;;;;;;;26.90;58.32;63682.94;5093856;28;20204;-74
2022/05/15 10:24:46;;;;;;;2.70;2.20;;;;;;;27.05;63.08;63699.78;5094054;28;20203;-73
2022/05/15 10:27:22;;;;;;;7.60;2.47;;;;;;;27.52;70.54;63748.34;5093377;28;20655;-74
2022/05/15 10:29:56;;;;;;;7.10;2.13;;;;;;;27.97;69.96;63798.88;5093538;28;20247;-73
2022/05/15 10:32:29;;;;;;;4.33;2.30;;;;;;;28.38;69.79;63843.50;5093367;28;20199;-75
2022/05/15 10:34:56;;;;;;;6.13;2.33;;;;;;;28.46;66.35;63851.66;5093548;28;20249;-75
2022/05/15 10:37:45;;;;;;;4.03;2.20;;;;;;;28.91;61.42;63896.00;5093356;28;20261;-74
2022/05/15 10:40:31;;;;;;;7.20;2.40;;;;;;;29.05;58.88;63911.28;5093404;28;20196;-74
2022/05/15 10:43:10;;;;;;;6.37;2.03;;;;;;;27.70;70.38;63764.22;5093506;28;20245;-76
2022/05/15 10:45:48;;;;;;;6.67;2.53;;;;;;;27.91;66.03;63790.22;5093604;28;20207;-76
2022/05/15 10:48:32;;;;;;;2.30;2.00;;;;;;;27.93;60.53;63794.50;5093096;28;20678;-74
2022/05/15 10:51:06;;;;;;;5.83;2.33;;;;;;;27.75;55.36;63774.91;5092670;28;20682;-76
2022/05/15 11:00:09;;;;;;;6.40;2.00;;;;;;;27.99;61.89;63801.59;5030812;28;20687;-74
2022/05/15 11:03:11;;;;;;;8.63;2.27;;;;;;;28.48;58.44;63854.41;5030363;28;20258;-76
2022/05/15 11:05:47;;;;;;;3.17;2.10;;;;;;;28.65;54.98;63872.38;5078242;28;20199;-74
2022/05/15 11:08:28;;;;;;;3.43;2.80;;;;;;;28.70;56.60;63878.38;5092723;28;20280;-74
2022/05/15 11:11:02;;;;;;;4.10;2.50;;;;;;;28.88;53.36;63897.97;5091807;28;20203;-74
2022/05/15 11:13:36;;;;;;;2.73;1.83;;;;;;;28.59;52.59;63866.41;5093158;28;20273;-74
2022/05/15 11:16:11;;;;;;;10.10;2.33;;;;;;;28.16;58.98;63819.56;5092738;28;20199;-75
2022/05/15 11:19:11;;;;;;;4.30;1.97;;;;;;;28.62;57.69;63866.50;5092797;28;20191;-74
2022/05/15 11:24:39;;;;;;;3.80;2.53;;;;;;;28.34;64.29;63839.16;5092115;28;20591;-75
2022/05/15 11:27:17;;;;;;;7.73;2.77;;;;;;;27.66;71.83;63765.09;5092695;28;20299;-75
2022/05/15 11:29:49;;;;;;;7.93;2.63;;;;;;;28.35;67.10;63840.78;5092052;28;20743;-74
2022/05/15 11:32:32;;;;;;;8.00;2.50;;;;;;;28.68;63.96;63873.03;5091891;28;20273;-74
2022/05/15 11:35:13;;;;;;;7.53;2.63;;;;;;;28.09;67.91;63807.22;5092524;28;20195;-74
2022/05/15 11:37:46;;;;;;;7.87;2.87;;;;;;;28.24;71.59;63828.25;5092016;28;20213;-75
2022/05/15 11:40:29;;;;;;;6.70;2.50;;;;;;;28.67;64.72;63875.13;5092048;28;20651;-74
2022/05/15 11:42:56;;;;;;;8.20;2.63;;;;;;;28.27;68.57;63826.81;5092292;28;20195;-75
2022/05/15 11:45:38;;;;;;;6.50;2.70;;;;;;;28.47;69.79;63853.31;5092042;28;20272;-74
2022/05/15 11:48:20;;;;;;;6.20;2.60;;;;;;;28.41;67.45;63846.78;5092052;28;20623;-73
2022/05/15 11:50:57;;;;;;;3.97;2.50;;;;;;;28.50;67.66;63851.31;5091873;28;20298;-74
2022/05/15 11:53:29;;;;;;;5.77;2.53;;;;;;;28.26;77.07;63831.00;5091903;28;20654;-75
2022/05/15 11:55:57;;;;;;;6.07;2.80;;;;;;;28.88;74.36;63892.75;5091949;28;20659;-75
2022/05/15 11:58:33;;;;;;;4.93;2.87;;;;;;;29.31;73.05;63943.78;5091835;28;20195;-74
2022/05/15 12:01:22;;;;;;;5.73;2.60;;;;;;;28.76;71.39;63884.91;5091766;28;20687;-73
2022/05/15 12:03:56;;;;;;;6.10;3.23;;;;;;;27.70;73.00;63766.84;5081003;28;20282;-74